sensor_id;sensor_type;location;lat;lon;timestamp;pressure;altitude;pressure_sealevel;temperature;humidity
57572;BME280;44459;43.522;24.470;2023-07-30T00:00:01;99859.81;;;19.50;100.00
57572;BME280;44459;43.522;24.470;2023-07-30T00:02:27;99859.75;;;19.51;100.00
57572;BME280;44459;43.522;24.470;2023-07-30T00:04:53;99858.06;;;19.49;100.00
57572;BME280;44459;43.522;24.470;2023-07-30T00:07:19;99865.38;;;19.44;100.00
57572;BME280;44459;43.522;24.470;2023-07-30T00:09:44;99848.50;;;19.40;100.00
57572;BME280;44459;43.522;24.470;2023-07-30T00:12:10;99852.16;;;19.38;100.00
57572;BME280;44459;43.522;24.470;2023-07-30T00:14:35;99846.25;;;19.30;100.00
57572;BME280;44459;43.522;24.470;2023-07-30T00:17:01;99860.44;;;19.32;100.00
57572;BME280;44459;43.522;24.470;2023-07-30T00:19:27;99859.69;;;19.27;100.00
57572;BME280;44459;43.522;24.470;2023-07-30T00:21:52;99860.56;;;19.27;100.00
57572;BME280;44459;43.522;24.470;2023-07-30T00:24:18;99864.13;;;19.28;100.00
57572;BME280;44459;43.522;24.470;2023-07-30T00:26:44;99850.91;;;19.23;100.00
57572;BME280;44459;43.522;24.470;2023-07-30T00:29:09;99858.28;;;19.17;100.00
57572;BME280;44459;43.522;24.470;2023-07-30T00:31:34;99853.91;;;19.14;100.00
57572;BME280;44459;43.522;24.470;2023-07-30T00:34:00;99847.78;;;19.10;100.00
57572;BME280;44459;43.522;24.470;2023-07-30T00:36:26;99839.09;;;19.04;100.00
57572;BME280;44459;43.522;24.470;2023-07-30T00:38:51;99843.66;;;19.02;100.00
57572;BME280;44459;43.522;24.470;2023-07-30T00:41:16;99843.69;;;19.00;100.00
57572;BME280;44459;43.522;24.470;2023-07-30T00:43:42;99833.09;;;18.97;100.00
57572;BME280;44459;43.522;24.470;2023-07-30T00:46:08;99835.88;;;18.94;100.00
57572;BME280;44459;43.522;24.470;2023-07-30T00:48:33;99825.28;;;18.91;100.00
57572;BME280;44459;43.522;24.470;2023-07-30T00:50:59;99826.47;;;18.83;100.00
57572;BME280;44459;43.522;24.470;2023-07-30T00:53:26;99830.16;;;18.79;100.00
57572;BME280;44459;43.522;24.470;2023-07-30T00:55:53;99827.50;;;18.79;100.00
57572;BME280;44459;43.522;24.470;2023-07-30T00:58:20;99822.41;;;18.71;100.00
57572;BME280;44459;43.522;24.470;2023-07-30T01:00:46;99819.69;;;18.73;100.00
57572;BME280;44459;43.522;24.470;2023-07-30T01:03:11;99810.84;;;18.71;100.00
57572;BME280;44459;43.522;24.470;2023-07-30T01:05:37;99809.25;;;18.65;100.00
57572;BME280;44459;43.522;24.470;2023-07-30T01:08:03;99820.00;;;18.64;100.00
57572;BME280;44459;43.522;24.470;2023-07-30T01:10:30;99818.69;;;18.47;100.00
57572;BME280;44459;43.522;24.470;2023-07-30T01:13:01;99818.50;;;18.55;100.00
57572;BME280;44459;43.522;24.470;2023-07-30T01:15:28;99811.34;;;18.55;100.00
57572;BME280;44459;43.522;24.470;2023-07-30T01:17:53;99821.38;;;18.47;100.00
57572;BME280;44459;43.522;24.470;2023-07-30T01:20:21;99812.41;;;18.50;100.00
57572;BME280;44459;43.522;24.470;2023-07-30T01:22:46;99815.00;;;18.53;100.00
57572;BME280;44459;43.522;24.470;2023-07-30T01:25:13;99817.56;;;18.56;100.00
57572;BME280;44459;43.522;24.470;2023-07-30T01:27:40;99821.13;;;18.56;100.00
57572;BME280;44459;43.522;24.470;2023-07-30T01:32:35;99824.94;;;18.48;100.00
57572;BME280;44459;43.522;24.470;2023-07-30T01:35:03;99821.47;;;18.44;100.00
57572;BME280;44459;43.522;24.470;2023-07-30T01:37:29;99821.59;;;18.41;100.00
57572;BME280;44459;43.522;24.470;2023-07-30T01:39:56;99820.69;;;18.41;100.00
57572;BME280;44459;43.522;24.470;2023-07-30T01:42:21;99830.63;;;18.37;100.00
57572;BME280;44459;43.522;24.470;2023-07-30T01:44:47;99818.94;;;18.40;100.00
57572;BME280;44459;43.522;24.470;2023-07-30T01:47:12;99818.09;;;18.39;100.00
57572;BME280;44459;43.522;24.470;2023-07-30T01:49:37;99820.69;;;18.41;100.00
57572;BME280;44459;43.522;24.470;2023-07-30T01:52:03;99826.94;;;18.41;100.00
57572;BME280;44459;43.522;24.470;2023-07-30T01:54:28;99827.69;;;18.45;100.00
57572;BME280;44459;43.522;24.470;2023-07-30T01:56:54;99825.13;;;18.42;100.00
57572;BME280;44459;43.522;24.470;2023-07-30T01:59:19;99824.25;;;18.41;100.00
57572;BME280;44459;43.522;24.470;2023-07-30T02:01:45;99822.59;;;18.37;100.00
57572;BME280;44459;43.522;24.470;2023-07-30T02:04:10;99827.13;;;18.35;100.00
57572;BME280;44459;43.522;24.470;2023-07-30T02:06:36;99825.41;;;18.33;100.00
57572;BME280;44459;43.522;24.470;2023-07-30T02:09:02;99829.16;;;18.27;100.00
57572;BME280;44459;43.522;24.470;2023-07-30T02:11:27;99820.59;;;18.16;100.00
57572;BME280;44459;43.522;24.470;2023-07-30T02:13:53;99832.06;;;18.20;100.00
57572;BME280;44459;43.522;24.470;2023-07-30T02:16:19;99833.09;;;18.16;100.00
57572;BME280;44459;43.522;24.470;2023-07-30T02:18:44;99836.59;;;18.18;100.00
57572;BME280;44459;43.522;24.470;2023-07-30T02:21:10;99837.63;;;18.14;100.00
57572;BME280;44459;43.522;24.470;2023-07-30T02:23:35;99835.03;;;18.10;100.00
57572;BME280;44459;43.522;24.470;2023-07-30T02:26:01;99846.53;;;18.13;100.00
57572;BME280;44459;43.522;24.470;2023-07-30T02:28:26;99839.50;;;18.10;100.00
57572;BME280;44459;43.522;24.470;2023-07-30T02:30:51;99836.88;;;18.08;100.00
57572;BME280;44459;43.522;24.470;2023-07-30T02:33:17;99845.81;;;18.07;100.00
57572;BME280;44459;43.522;24.470;2023-07-30T02:35:43;99845.91;;;18.04;100.00
57572;BME280;44459;43.522;24.470;2023-07-30T02:38:09;99848.53;;;18.06;100.00
57572;BME280;44459;43.522;24.470;2023-07-30T02:40:34;99852.28;;;18.00;100.00
57572;BME280;44459;43.522;24.470;2023-07-30T02:42:59;99854.97;;;17.99;100.00
57572;BME280;44459;43.522;24.470;2023-07-30T02:45:25;99848.84;;;17.95;100.00
57572;BME280;44459;43.522;24.470;2023-07-30T02:47:50;99853.38;;;17.93;100.00
57572;BME280;44459;43.522;24.470;2023-07-30T02:50:16;99844.53;;;17.91;100.00
57572;BME280;44459;43.522;24.470;2023-07-30T02:52:41;99845.47;;;17.90;100.00
57572;BME280;44459;43.522;24.470;2023-07-30T02:55:07;99850.72;;;17.93;100.00
57572;BME280;44459;43.522;24.470;2023-07-30T02:57:32;99837.44;;;17.90;100.00
57572;BME280;44459;43.522;24.470;2023-07-30T02:59:58;99848.91;;;17.94;100.00
57572;BME280;44459;43.522;24.470;2023-07-30T03:02:23;99847.16;;;17.93;100.00
57572;BME280;44459;43.522;24.470;2023-07-30T03:04:49;99857.06;;;17.89;100.00
57572;BME280;44459;43.522;24.470;2023-07-30T03:07:14;99850.16;;;17.82;100.00
57572;BME280;44459;43.522;24.470;2023-07-30T03:09:39;99862.50;;;17.86;100.00
57572;BME280;44459;43.522;24.470;2023-07-30T03:12:05;99861.03;;;17.75;100.00
57572;BME280;44459;43.522;24.470;2023-07-30T03:14:31;99861.09;;;17.73;100.00
57572;BME280;44459;43.522;24.470;2023-07-30T03:16:56;99865.50;;;17.74;100.00
57572;BME280;44459;43.522;24.470;2023-07-30T03:19:22;99862.03;;;17.71;100.00
57572;BME280;44459;43.522;24.470;2023-07-30T03:21:47;99869.25;;;17.67;100.00
57572;BME280;44459;43.522;24.470;2023-07-30T03:24:12;99864.00;;;17.66;100.00
57572;BME280;44459;43.522;24.470;2023-07-30T03:26:38;99861.53;;;17.58;100.00
57572;BME280;44459;43.522;24.470;2023-07-30T03:29:03;99865.88;;;17.62;100.00
57572;BME280;44459;43.522;24.470;2023-07-30T03:31:29;99858.69;;;17.64;100.00
57572;BME280;44459;43.522;24.470;2023-07-30T03:33:54;99871.91;;;17.69;100.00
57572;BME280;44459;43.522;24.470;2023-07-30T03:36:19;99867.44;;;17.69;100.00
57572;BME280;44459;43.522;24.470;2023-07-30T03:38:45;99862.03;;;17.71;100.00
57572;BME280;44459;43.522;24.470;2023-07-30T03:41:10;99865.66;;;17.70;100.00
57572;BME280;44459;43.522;24.470;2023-07-30T03:43:36;99861.91;;;17.75;100.00
57572;BME280;44459;43.522;24.470;2023-07-30T03:46:02;99869.03;;;17.76;100.00
57572;BME280;44459;43.522;24.470;2023-07-30T03:48:28;99883.94;;;17.83;100.00
57572;BME280;44459;43.522;24.470;2023-07-30T03:50:54;99867.94;;;17.83;100.00
57572;BME280;44459;43.522;24.470;2023-07-30T03:53:19;99871.31;;;17.88;100.00
57572;BME280;44459;43.522;24.470;2023-07-30T03:55:45;99871.97;;;17.96;100.00
57572;BME280;44459;43.522;24.470;2023-07-30T03:58:11;99877.00;;;18.07;100.00
57572;BME280;44459;43.522;24.470;2023-07-30T04:00:36;99866.03;;;18.16;100.00
57572;BME280;44459;43.522;24.470;2023-07-30T04:03:02;99864.81;;;18.26;100.00
57572;BME280;44459;43.522;24.470;2023-07-30T04:05:28;99868.81;;;18.41;100.00
57572;BME280;44459;43.522;24.470;2023-07-30T04:07:54;99865.94;;;18.47;100.00
57572;BME280;44459;43.522;24.470;2023-07-30T04:10:19;99877.06;;;18.63;100.00
57572;BME280;44459;43.522;24.470;2023-07-30T04:12:45;99867.84;;;18.71;100.00
57572;BME280;44459;43.522;24.470;2023-07-30T04:15:10;99876.38;;;18.84;100.00
57572;BME280;44459;43.522;24.470;2023-07-30T04:17:38;99880.41;;;18.95;100.00
57572;BME280;44459;43.522;24.470;2023-07-30T04:20:06;99879.94;;;19.09;100.00
57572;BME280;44459;43.522;24.470;2023-07-30T04:22:31;99876.97;;;19.18;100.00
57572;BME280;44459;43.522;24.470;2023-07-30T04:24:57;99877.38;;;19.32;100.00
57572;BME280;44459;43.522;24.470;2023-07-30T04:27:22;99884.03;;;19.47;100.00
57572;BME280;44459;43.522;24.470;2023-07-30T04:29:48;99886.09;;;19.64;100.00
57572;BME280;44459;43.522;24.470;2023-07-30T04:32:13;99890.97;;;19.76;100.00
57572;BME280;44459;43.522;24.470;2023-07-30T04:34:39;99885.47;;;19.80;100.00
57572;BME280;44459;43.522;24.470;2023-07-30T04:40:13;99884.41;;;20.07;98.92
57572;BME280;44459;43.522;24.470;2023-07-30T04:42:38;99883.84;;;20.23;98.92
57572;BME280;44459;43.522;24.470;2023-07-30T04:45:12;99893.06;;;20.39;98.26
57572;BME280;44459;43.522;24.470;2023-07-30T04:47:37;99903.38;;;20.49;96.25
57572;BME280;44459;43.522;24.470;2023-07-30T04:50:03;99903.94;;;20.57;95.96
57572;BME280;44459;43.522;24.470;2023-07-30T04:52:28;99895.59;;;20.65;95.95
57572;BME280;44459;43.522;24.470;2023-07-30T04:54:54;99896.22;;;20.72;93.57
57572;BME280;44459;43.522;24.470;2023-07-30T04:57:19;99899.22;;;20.86;93.94
57572;BME280;44459;43.522;24.470;2023-07-30T04:59:45;99904.66;;;21.04;94.01
57572;BME280;44459;43.522;24.470;2023-07-30T05:02:10;99896.34;;;21.12;91.59
57572;BME280;44459;43.522;24.470;2023-07-30T05:04:35;99898.56;;;21.23;91.89
57572;BME280;44459;43.522;24.470;2023-07-30T05:07:01;99892.59;;;21.36;91.37
57572;BME280;44459;43.522;24.470;2023-07-30T05:09:26;99899.50;;;21.42;89.62
57572;BME280;44459;43.522;24.470;2023-07-30T05:11:52;99912.31;;;21.55;88.90
57572;BME280;44459;43.522;24.470;2023-07-30T05:14:17;99905.63;;;21.66;90.75
57572;BME280;44459;43.522;24.470;2023-07-30T05:16:42;99902.34;;;21.79;88.41
57572;BME280;44459;43.522;24.470;2023-07-30T05:19:08;99909.56;;;21.97;88.20
57572;BME280;44459;43.522;24.470;2023-07-30T05:21:33;99916.91;;;22.14;88.11
57572;BME280;44459;43.522;24.470;2023-07-30T05:23:59;99901.19;;;22.24;87.28
57572;BME280;44459;43.522;24.470;2023-07-30T05:26:24;99901.28;;;22.41;86.33
57572;BME280;44459;43.522;24.470;2023-07-30T05:28:50;99907.22;;;22.66;85.77
57572;BME280;44459;43.522;24.470;2023-07-30T05:31:15;99916.16;;;22.85;85.49
57572;BME280;44459;43.522;24.470;2023-07-30T05:33:40;99913.66;;;22.99;85.38
57572;BME280;44459;43.522;24.470;2023-07-30T05:36:06;99905.66;;;22.98;81.21
57572;BME280;44459;43.522;24.470;2023-07-30T05:38:31;99920.69;;;23.21;81.70
57572;BME280;44459;43.522;24.470;2023-07-30T05:40:57;99913.38;;;23.40;81.85
57572;BME280;44459;43.522;24.470;2023-07-30T05:43:22;99915.97;;;23.60;80.47
57572;BME280;44459;43.522;24.470;2023-07-30T05:45:47;99917.31;;;23.69;78.94
57572;BME280;44459;43.522;24.470;2023-07-30T05:48:13;99913.41;;;23.74;76.15
57572;BME280;44459;43.522;24.470;2023-07-30T05:50:38;99920.84;;;23.86;77.93
57572;BME280;44459;43.522;24.470;2023-07-30T05:53:04;99924.88;;;24.12;79.60
57572;BME280;44459;43.522;24.470;2023-07-30T05:55:29;99918.47;;;24.30;78.24
57572;BME280;44459;43.522;24.470;2023-07-30T05:57:55;99920.94;;;24.50;76.73
57572;BME280;44459;43.522;24.470;2023-07-30T06:00:21;99921.47;;;24.73;76.43
57572;BME280;44459;43.522;24.470;2023-07-30T06:02:46;99915.94;;;24.91;74.31
57572;BME280;44459;43.522;24.470;2023-07-30T06:05:11;99923.31;;;25.03;73.39
57572;BME280;44459;43.522;24.470;2023-07-30T06:07:37;99905.72;;;25.12;72.15
57572;BME280;44459;43.522;24.470;2023-07-30T06:10:02;99912.88;;;25.27;74.95
57572;BME280;44459;43.522;24.470;2023-07-30T06:12:28;99915.59;;;25.27;71.24
57572;BME280;44459;43.522;24.470;2023-07-30T06:14:53;99916.28;;;25.31;70.30
57572;BME280;44459;43.522;24.470;2023-07-30T06:17:19;99906.50;;;25.44;71.49
57572;BME280;44459;43.522;24.470;2023-07-30T06:19:44;99908.69;;;25.53;72.82
57572;BME280;44459;43.522;24.470;2023-07-30T06:22:10;99907.00;;;25.80;71.40
57572;BME280;44459;43.522;24.470;2023-07-30T06:24:35;99910.78;;;26.06;69.08
57572;BME280;44459;43.522;24.470;2023-07-30T06:27:00;99900.50;;;26.27;70.86
57572;BME280;44459;43.522;24.470;2023-07-30T06:29:26;99901.91;;;26.46;67.97
57572;BME280;44459;43.522;24.470;2023-07-30T06:31:51;99905.19;;;26.66;67.26
57572;BME280;44459;43.522;24.470;2023-07-30T06:34:17;99905.53;;;26.74;66.75
57572;BME280;44459;43.522;24.470;2023-07-30T06:36:42;99910.53;;;26.80;64.73
57572;BME280;44459;43.522;24.470;2023-07-30T06:39:07;99903.94;;;26.98;65.29
57572;BME280;44459;43.522;24.470;2023-07-30T06:41:33;99901.13;;;27.26;69.54
57572;BME280;44459;43.522;24.470;2023-07-30T06:43:58;99898.75;;;27.34;63.71
57572;BME280;44459;43.522;24.470;2023-07-30T06:46:24;99884.09;;;27.51;60.65
57572;BME280;44459;43.522;24.470;2023-07-30T06:48:49;99884.97;;;27.64;58.17
57572;BME280;44459;43.522;24.470;2023-07-30T06:51:18;99883.34;;;27.74;58.16
57572;BME280;44459;43.522;24.470;2023-07-30T06:53:44;99876.41;;;27.83;57.62
57572;BME280;44459;43.522;24.470;2023-07-30T06:56:09;99876.53;;;28.07;59.37
57572;BME280;44459;43.522;24.470;2023-07-30T06:58:35;99879.38;;;28.18;58.41
57572;BME280;44459;43.522;24.470;2023-07-30T07:01:00;99867.84;;;28.14;57.57
57572;BME280;44459;43.522;24.470;2023-07-30T07:03:25;99873.44;;;28.36;58.45
57572;BME280;44459;43.522;24.470;2023-07-30T07:05:55;99873.50;;;28.60;55.43
57572;BME280;44459;43.522;24.470;2023-07-30T07:08:20;99876.00;;;28.76;57.20
57572;BME280;44459;43.522;24.470;2023-07-30T07:10:46;99873.22;;;28.88;53.85
57572;BME280;44459;43.522;24.470;2023-07-30T07:13:11;99860.31;;;28.79;51.88
57572;BME280;44459;43.522;24.470;2023-07-30T07:15:40;99864.84;;;29.15;54.20
57572;BME280;44459;43.522;24.470;2023-07-30T07:18:06;99864.78;;;29.28;49.36
57572;BME280;44459;43.522;24.470;2023-07-30T07:20:32;99860.41;;;29.49;48.92
57572;BME280;44459;43.522;24.470;2023-07-30T07:22:57;99865.72;;;29.51;52.85
57572;BME280;44459;43.522;24.470;2023-07-30T07:25:22;99871.56;;;29.68;49.66
57572;BME280;44459;43.522;24.470;2023-07-30T07:27:48;99850.94;;;29.77;50.52
57572;BME280;44459;43.522;24.470;2023-07-30T07:30:13;99857.94;;;29.92;47.40
57572;BME280;44459;43.522;24.470;2023-07-30T07:32:39;99859.50;;;29.83;45.27
57572;BME280;44459;43.522;24.470;2023-07-30T07:35:05;99861.41;;;30.05;47.67
57572;BME280;44459;43.522;24.470;2023-07-30T07:37:32;99840.00;;;30.12;44.93
57572;BME280;44459;43.522;24.470;2023-07-30T07:39:57;99854.97;;;30.28;45.80
57572;BME280;44459;43.522;24.470;2023-07-30T07:42:23;99846.91;;;30.38;44.82
57572;BME280;44459;43.522;24.470;2023-07-30T07:44:48;99847.28;;;30.44;45.27
57572;BME280;44459;43.522;24.470;2023-07-30T07:47:14;99839.09;;;30.67;46.41
57572;BME280;44459;43.522;24.470;2023-07-30T07:49:39;99842.22;;;30.94;47.76
57572;BME280;44459;43.522;24.470;2023-07-30T07:52:04;99842.91;;;31.18;45.68
57572;BME280;44459;43.522;24.470;2023-07-30T07:54:30;99844.91;;;31.16;44.89
57572;BME280;44459;43.522;24.470;2023-07-30T07:56:55;99829.16;;;31.20;45.41
57572;BME280;44459;43.522;24.470;2023-07-30T07:59:21;99827.09;;;31.33;42.93
57572;BME280;44459;43.522;24.470;2023-07-30T08:01:46;99839.19;;;31.51;44.35
57572;BME280;44459;43.522;24.470;2023-07-30T08:04:12;99834.13;;;31.67;44.88
57572;BME280;44459;43.522;24.470;2023-07-30T08:06:37;99832.19;;;31.79;43.94
57572;BME280;44459;43.522;24.470;2023-07-30T08:09:02;99828.22;;;31.92;42.90
57572;BME280;44459;43.522;24.470;2023-07-30T08:11:28;99826.16;;;32.06;40.41
57572;BME280;44459;43.522;24.470;2023-07-30T08:13:53;99831.84;;;32.23;40.58
57572;BME280;44459;43.522;24.470;2023-07-30T08:16:19;99828.53;;;32.20;41.74
57572;BME280;44459;43.522;24.470;2023-07-30T08:18:44;99824.97;;;32.29;40.93
57572;BME280;44459;43.522;24.470;2023-07-30T08:21:10;99817.03;;;32.26;38.98
57572;BME280;44459;43.522;24.470;2023-07-30T08:23:35;99809.75;;;32.36;39.86
57572;BME280;44459;43.522;24.470;2023-07-30T08:26:00;99815.81;;;32.49;37.97
57572;BME280;44459;43.522;24.470;2023-07-30T08:28:26;99814.09;;;32.48;40.47
57572;BME280;44459;43.522;24.470;2023-07-30T08:30:51;99813.16;;;32.59;38.65
57572;BME280;44459;43.522;24.470;2023-07-30T08:33:17;99815.19;;;32.66;41.29
57572;BME280;44459;43.522;24.470;2023-07-30T08:35:42;99805.84;;;32.69;35.51
57572;BME280;44459;43.522;24.470;2023-07-30T08:38:08;99806.63;;;32.50;37.47
57572;BME280;44459;43.522;24.470;2023-07-30T08:40:33;99795.47;;;32.63;37.83
57572;BME280;44459;43.522;24.470;2023-07-30T08:42:59;99791.16;;;32.79;42.04
57572;BME280;44459;43.522;24.470;2023-07-30T08:45:24;99794.03;;;32.68;35.69
57572;BME280;44459;43.522;24.470;2023-07-30T08:47:50;99797.84;;;32.56;35.62
57572;BME280;44459;43.522;24.470;2023-07-30T08:50:15;99797.75;;;32.67;37.64
57572;BME280;44459;43.522;24.470;2023-07-30T08:52:41;99793.75;;;32.71;36.83
57572;BME280;44459;43.522;24.470;2023-07-30T08:55:07;99783.69;;;32.81;37.63
57572;BME280;44459;43.522;24.470;2023-07-30T08:57:33;99794.91;;;32.98;37.34
57572;BME280;44459;43.522;24.470;2023-07-30T09:00:08;99784.41;;;33.22;36.70
57572;BME280;44459;43.522;24.470;2023-07-30T09:02:37;99789.44;;;33.36;35.57
57572;BME280;44459;43.522;24.470;2023-07-30T09:05:04;99781.66;;;33.41;36.57
57572;BME280;44459;43.522;24.470;2023-07-30T09:07:29;99781.78;;;33.59;39.75
57572;BME280;44459;43.522;24.470;2023-07-30T09:09:55;99784.69;;;33.38;33.84
57572;BME280;44459;43.522;24.470;2023-07-30T09:12:26;99782.25;;;33.25;35.32
57572;BME280;44459;43.522;24.470;2023-07-30T09:14:51;99788.28;;;33.10;34.54
57572;BME280;44459;43.522;24.470;2023-07-30T09:17:18;99781.53;;;33.23;36.21
57572;BME280;44459;43.522;24.470;2023-07-30T09:19:44;99781.69;;;33.31;34.18
57572;BME280;44459;43.522;24.470;2023-07-30T09:22:09;99771.13;;;33.56;37.50
57572;BME280;44459;43.522;24.470;2023-07-30T09:24:35;99768.50;;;33.73;35.89
57572;BME280;44459;43.522;24.470;2023-07-30T09:27:03;99768.91;;;33.78;35.50
57572;BME280;44459;43.522;24.470;2023-07-30T09:29:29;99769.03;;;33.86;34.99
57572;BME280;44459;43.522;24.470;2023-07-30T09:31:55;99762.13;;;33.82;33.83
57572;BME280;44459;43.522;24.470;2023-07-30T09:34:22;99759.38;;;33.82;32.38
57572;BME280;44459;43.522;24.470;2023-07-30T09:36:51;99759.91;;;33.96;35.19
57572;BME280;44459;43.522;24.470;2023-07-30T09:39:17;99759.00;;;34.14;33.38
57572;BME280;44459;43.522;24.470;2023-07-30T09:41:44;99759.38;;;34.19;37.77
57572;BME280;44459;43.522;24.470;2023-07-30T09:44:10;99753.94;;;34.37;32.47
57572;BME280;44459;43.522;24.470;2023-07-30T09:46:46;99747.06;;;34.51;34.71
57572;BME280;44459;43.522;24.470;2023-07-30T09:49:11;99753.66;;;34.67;36.04
57572;BME280;44459;43.522;24.470;2023-07-30T09:51:38;99750.91;;;34.67;33.16
57572;BME280;44459;43.522;24.470;2023-07-30T09:54:10;99745.44;;;34.58;31.44
57572;BME280;44459;43.522;24.470;2023-07-30T09:56:37;99744.88;;;34.64;33.30
57572;BME280;44459;43.522;24.470;2023-07-30T09:59:07;99736.63;;;34.64;33.08
57572;BME280;44459;43.522;24.470;2023-07-30T10:01:43;99733.41;;;34.68;32.23
57572;BME280;44459;43.522;24.470;2023-07-30T10:04:10;99726.69;;;34.80;31.81
57572;BME280;44459;43.522;24.470;2023-07-30T10:06:52;99721.81;;;34.74;29.24
57572;BME280;44459;43.522;24.470;2023-07-30T10:09:20;99732.94;;;34.73;31.96
57572;BME280;44459;43.522;24.470;2023-07-30T10:11:49;99728.00;;;34.76;32.00
57572;BME280;44459;43.522;24.470;2023-07-30T10:14:22;99723.91;;;34.98;33.16
57572;BME280;44459;43.522;24.470;2023-07-30T10:16:59;99722.03;;;35.16;32.99
57572;BME280;44459;43.522;24.470;2023-07-30T10:19:26;99718.34;;;35.25;33.98
57572;BME280;44459;43.522;24.470;2023-07-30T10:24:38;99726.41;;;35.27;32.34
57572;BME280;44459;43.522;24.470;2023-07-30T10:27:09;99704.06;;;35.22;28.07
57572;BME280;44459;43.522;24.470;2023-07-30T10:29:35;99712.84;;;35.08;27.22
57572;BME280;44459;43.522;24.470;2023-07-30T10:32:01;99716.84;;;35.13;30.96
57572;BME280;44459;43.522;24.470;2023-07-30T10:34:44;99704.50;;;35.35;31.38
57572;BME280;44459;43.522;24.470;2023-07-30T10:37:10;99704.34;;;35.37;30.38
57572;BME280;44459;43.522;24.470;2023-07-30T10:39:35;99694.00;;;35.30;31.27
57572;BME280;44459;43.522;24.470;2023-07-30T10:42:01;99691.16;;;35.40;33.28
57572;BME280;44459;43.522;24.470;2023-07-30T10:44:28;99690.72;;;35.53;32.24
57572;BME280;44459;43.522;24.470;2023-07-30T10:46:55;99692.81;;;35.33;30.18
57572;BME280;44459;43.522;24.470;2023-07-30T10:49:21;99683.91;;;35.13;27.37
57572;BME280;44459;43.522;24.470;2023-07-30T10:51:48;99694.09;;;35.21;32.09
57572;BME280;44459;43.522;24.470;2023-07-30T10:54:13;99681.63;;;35.26;33.51
57572;BME280;44459;43.522;24.470;2023-07-30T10:56:41;99688.47;;;35.05;28.07
57572;BME280;44459;43.522;24.470;2023-07-30T10:59:07;99680.03;;;34.98;30.60
57572;BME280;44459;43.522;24.470;2023-07-30T11:01:37;99677.34;;;34.88;35.37
57572;BME280;44459;43.522;24.470;2023-07-30T11:04:14;99680.88;;;34.99;33.64
57572;BME280;44459;43.522;24.470;2023-07-30T11:06:45;99674.75;;;35.05;30.60
57572;BME280;44459;43.522;24.470;2023-07-30T11:09:21;99676.28;;;35.25;29.41
57572;BME280;44459;43.522;24.470;2023-07-30T11:11:47;99665.78;;;35.20;29.56
57572;BME280;44459;43.522;24.470;2023-07-30T11:14:20;99666.47;;;35.48;31.94
57572;BME280;44459;43.522;24.470;2023-07-30T11:16:51;99656.63;;;35.63;33.29
57572;BME280;44459;43.522;24.470;2023-07-30T11:19:17;99659.25;;;35.73;29.87
57572;BME280;44459;43.522;24.470;2023-07-30T11:21:51;99650.84;;;35.49;28.22
57572;BME280;44459;43.522;24.470;2023-07-30T11:24:17;99649.09;;;35.65;31.89
57572;BME280;44459;43.522;24.470;2023-07-30T11:26:43;99646.34;;;35.65;29.55
57572;BME280;44459;43.522;24.470;2023-07-30T11:31:42;99640.94;;;35.81;26.59
57572;BME280;44459;43.522;24.470;2023-07-30T11:34:08;99643.16;;;35.78;27.47
57572;BME280;44459;43.522;24.470;2023-07-30T11:36:34;99649.16;;;35.81;29.85
57572;BME280;44459;43.522;24.470;2023-07-30T11:38:59;99638.19;;;35.81;31.45
57572;BME280;44459;43.522;24.470;2023-07-30T11:41:25;99632.88;;;35.88;30.99
57572;BME280;44459;43.522;24.470;2023-07-30T11:43:51;99641.72;;;36.08;32.47
57572;BME280;44459;43.522;24.470;2023-07-30T11:46:17;99629.88;;;36.15;27.37
57572;BME280;44459;43.522;24.470;2023-07-30T11:48:48;99632.72;;;35.98;33.01
57572;BME280;44459;43.522;24.470;2023-07-30T11:58:59;99621.72;;;35.22;25.54
57572;BME280;44459;43.522;24.470;2023-07-30T12:01:26;99625.34;;;35.30;26.72
57572;BME280;44459;43.522;24.470;2023-07-30T12:04:00;99616.56;;;35.19;27.19
57572;BME280;44459;43.522;24.470;2023-07-30T12:09:17;99613.22;;;35.41;29.36
57572;BME280;44459;43.522;24.470;2023-07-30T12:11:57;99605.84;;;35.42;28.42
57572;BME280;44459;43.522;24.470;2023-07-30T12:14:59;99599.09;;;35.28;28.88
57572;BME280;44459;43.522;24.470;2023-07-30T12:17:25;99591.97;;;35.43;29.76
57572;BME280;44459;43.522;24.470;2023-07-30T12:19:50;99597.47;;;35.51;29.24
57572;BME280;44459;43.522;24.470;2023-07-30T12:22:16;99580.81;;;35.78;31.06
57572;BME280;44459;43.522;24.470;2023-07-30T12:24:41;99575.84;;;35.82;31.88
57572;BME280;44459;43.522;24.470;2023-07-30T12:27:06;99577.88;;;35.80;31.75
57572;BME280;44459;43.522;24.470;2023-07-30T12:29:32;99579.19;;;35.60;30.81
57572;BME280;44459;43.522;24.470;2023-07-30T12:31:57;99567.38;;;35.67;29.68
57572;BME280;44459;43.522;24.470;2023-07-30T12:34:23;99571.53;;;35.79;33.12
57572;BME280;44459;43.522;24.470;2023-07-30T12:36:49;99563.00;;;35.99;36.51
57572;BME280;44459;43.522;24.470;2023-07-30T12:39:14;99556.50;;;36.08;31.19
57572;BME280;44459;43.522;24.470;2023-07-30T12:41:40;99553.44;;;36.19;32.82
57572;BME280;44459;43.522;24.470;2023-07-30T12:44:05;99537.47;;;36.30;33.15
57572;BME280;44459;43.522;24.470;2023-07-30T12:46:31;99546.91;;;36.28;26.92
57572;BME280;44459;43.522;24.470;2023-07-30T12:48:58;99555.50;;;36.17;25.89
57572;BME280;44459;43.522;24.470;2023-07-30T12:51:27;99542.94;;;36.14;29.88
57572;BME280;44459;43.522;24.470;2023-07-30T12:53:53;99539.19;;;35.65;27.79
57572;BME280;44459;43.522;24.470;2023-07-30T12:56:18;99545.53;;;35.24;30.04
57572;BME280;44459;43.522;24.470;2023-07-30T12:58:44;99546.72;;;34.96;30.00
57572;BME280;44459;43.522;24.470;2023-07-30T13:01:09;99538.59;;;34.60;28.50